createdAt,value
2019-05-23T00:02:27.160Z,19.07
2019-05-23T00:07:30.369Z,18.07
2019-05-23T00:12:44.359Z,19.00
2019-05-23T00:17:45.676Z,16.73
2019-05-23T00:22:47.176Z,21.27
2019-05-23T00:27:49.059Z,22.37
2019-05-23T00:32:53.490Z,20.93
2019-05-23T00:37:55.081Z,19.30
2019-05-23T00:42:57.599Z,18.37
2019-05-23T00:47:58.802Z,21.57
2019-05-23T00:53:00.284Z,16.13
2019-05-23T00:58:01.579Z,21.53
2019-05-23T01:03:04.675Z,20.17
2019-05-23T01:08:06.765Z,23.97
2019-05-23T01:13:09.874Z,21.20
2019-05-23T01:18:12.991Z,23.37
2019-05-23T01:23:15.998Z,20.43
2019-05-23T01:28:17.193Z,19.70
2019-05-23T01:33:18.688Z,19.93
2019-05-23T01:38:20.483Z,18.57
2019-05-23T01:43:22.721Z,18.73
2019-05-23T01:48:25.317Z,22.83
2019-05-23T01:53:27.099Z,27.27
2019-05-23T01:58:29.211Z,20.10
2019-05-23T02:03:31.112Z,25.27
2019-05-23T02:08:33.805Z,27.37
2019-05-23T02:13:35.705Z,20.87
2019-05-23T02:18:37.114Z,24.33
2019-05-23T02:23:39.528Z,21.40
2019-05-23T02:28:40.933Z,22.77
2019-05-23T02:33:42.928Z,23.17
2019-05-23T02:38:52.195Z,26.43
2019-05-23T02:43:56.490Z,25.27
2019-05-23T02:48:59.495Z,23.57
2019-05-23T02:54:02.336Z,21.47
2019-05-23T02:59:23.503Z,22.43
2019-05-23T03:04:28.495Z,24.57
2019-05-23T03:09:33.615Z,23.10
2019-05-23T03:14:37.319Z,25.03
2019-05-23T03:19:52.215Z,21.83
2019-05-23T03:24:56.918Z,22.97
2019-05-23T03:29:58.725Z,23.07
2019-05-23T03:35:10.969Z,25.30
2019-05-23T03:40:12.984Z,24.87
2019-05-23T03:45:14.513Z,28.97
2019-05-23T03:50:15.992Z,26.57
2019-05-23T03:55:18.493Z,27.80
2019-05-23T04:00:24.151Z,29.53
2019-05-23T04:05:25.758Z,29.03
2019-05-23T04:10:27.040Z,23.60
2019-05-23T04:15:28.739Z,27.37
2019-05-23T04:20:30.847Z,27.20
2019-05-23T04:25:32.385Z,29.30
2019-05-23T04:30:35.350Z,28.67
2019-05-23T04:35:36.751Z,28.20
2019-05-23T04:40:38.542Z,25.90
2019-05-23T04:45:41.340Z,20.83
2019-05-23T04:50:42.691Z,19.13
2019-05-23T04:55:45.130Z,22.23
2019-05-23T05:00:46.383Z,21.30
2019-05-23T05:05:48.136Z,20.77
2019-05-23T05:10:49.223Z,21.03
2019-05-23T05:15:51.005Z,21.27
2019-05-23T05:20:52.556Z,21.37
2019-05-23T05:25:53.656Z,21.13
2019-05-23T05:30:54.749Z,24.67
2019-05-23T05:35:55.956Z,22.57
2019-05-23T05:40:57.460Z,23.47
2019-05-23T05:45:59.138Z,22.57
2019-05-23T05:51:00.441Z,19.50
2019-05-23T05:56:01.546Z,17.47
2019-05-23T06:01:06.596Z,16.93
2019-05-23T06:06:12.805Z,22.87
2019-05-23T06:11:15.617Z,22.50
2019-05-23T06:16:16.932Z,24.13
2019-05-23T06:21:25.778Z,23.93
2019-05-23T06:26:27.454Z,25.37
2019-05-23T06:31:29.079Z,19.73
2019-05-23T06:36:30.875Z,20.10
2019-05-23T06:41:32.600Z,20.50
2019-05-23T06:46:34.087Z,20.27
2019-05-23T06:51:35.799Z,20.57
2019-05-23T06:56:37.044Z,19.53
2019-05-23T07:01:39.035Z,20.87
2019-05-23T07:06:40.192Z,24.27
2019-05-23T07:11:41.398Z,22.87
2019-05-23T07:16:42.479Z,22.20
2019-05-23T07:21:43.842Z,22.27
2019-05-23T07:26:45.623Z,18.60
2019-05-23T07:31:47.211Z,19.73
2019-05-23T07:36:48.707Z,22.30
2019-05-23T07:41:50.874Z,20.00
2019-05-23T07:46:52.537Z,20.67
2019-05-23T07:51:53.629Z,19.73
2019-05-23T07:56:54.811Z,22.73
2019-05-23T08:02:04.435Z,20.33
2019-05-23T08:07:06.765Z,17.30
2019-05-23T08:12:07.861Z,17.67
2019-05-23T08:17:09.461Z,17.30
2019-05-23T08:22:10.882Z,15.67
2019-05-23T08:27:12.203Z,12.50
2019-05-23T08:32:15.335Z,12.80
2019-05-23T08:37:16.833Z,10.23
2019-05-23T08:42:19.466Z,11.23
2019-05-23T08:47:21.982Z,10.33
2019-05-23T08:52:23.360Z,10.10
2019-05-23T08:57:24.452Z,7.37
2019-05-23T09:02:26.873Z,5.83
2019-05-23T09:07:27.960Z,5.23
2019-05-23T09:12:29.260Z,5.80
2019-05-23T09:17:30.349Z,5.27
2019-05-23T09:22:31.656Z,5.67
2019-05-23T09:27:34.658Z,7.13
2019-05-23T09:32:36.287Z,3.23
2019-05-23T09:37:37.587Z,4.43
2019-05-23T09:42:38.905Z,3.50
2019-05-23T09:47:39.991Z,3.63
2019-05-23T09:52:41.312Z,3.27
2019-05-23T09:57:42.739Z,2.80
2019-05-23T10:02:43.832Z,3.70
2019-05-23T10:07:45.037Z,7.67
2019-05-23T10:12:46.156Z,6.47
2019-05-23T10:17:47.348Z,2.20
2019-05-23T10:22:48.458Z,1.70
2019-05-23T10:27:49.556Z,2.07
2019-05-23T10:32:50.845Z,3.13
2019-05-23T10:37:52.059Z,4.53
2019-05-23T10:42:53.400Z,2.83
2019-05-23T10:47:54.894Z,3.00
2019-05-23T10:52:56.111Z,2.40
2019-05-23T10:57:57.287Z,4.90
2019-05-23T11:02:59.195Z,3.27
2019-05-23T11:08:02.128Z,5.17
2019-05-23T11:13:03.641Z,3.10
2019-05-23T11:18:05.632Z,3.63
2019-05-23T11:23:06.741Z,3.00
2019-05-23T11:28:07.962Z,3.57
2019-05-23T11:33:11.774Z,4.53
2019-05-23T11:38:13.471Z,4.83
2019-05-23T11:43:14.900Z,3.70
2019-05-23T11:48:16.895Z,2.00
2019-05-23T11:53:18.427Z,2.47
2019-05-23T11:58:19.640Z,1.95
2019-05-23T12:03:21.015Z,3.77
2019-05-23T12:08:22.221Z,2.12
2019-05-23T12:13:23.304Z,7.97
2019-05-23T12:18:25.095Z,2.02
2019-05-23T12:23:26.330Z,4.25
2019-05-23T12:28:29.339Z,2.75
2019-05-23T12:33:30.648Z,2.02
2019-05-23T12:38:31.974Z,3.75
2019-05-23T12:43:33.274Z,1.70
2019-05-23T12:48:45.409Z,1.95
2019-05-23T12:53:46.812Z,1.87
2019-05-23T12:58:48.211Z,3.52
2019-05-23T13:03:49.412Z,4.47
2019-05-23T13:08:50.692Z,2.15
2019-05-23T13:13:51.932Z,4.05
2019-05-23T13:18:53.224Z,1.92
2019-05-23T13:23:54.453Z,1.82
2019-05-23T13:28:55.568Z,2.42
2019-05-23T13:33:56.761Z,1.42
2019-05-23T13:38:58.069Z,3.37
2019-05-23T13:43:59.180Z,1.55
2019-05-23T13:49:00.300Z,4.12
2019-05-23T13:54:01.392Z,2.90
2019-05-23T13:59:02.713Z,2.65
2019-05-23T14:04:04.607Z,2.67
2019-05-23T14:09:06.235Z,1.42
2019-05-23T14:14:08.113Z,2.05
2019-05-23T14:19:09.983Z,2.60
2019-05-23T14:24:11.218Z,2.22
2019-05-23T14:29:12.845Z,2.70
2019-05-23T14:34:14.137Z,3.87
2019-05-23T14:39:20.138Z,2.30
2019-05-23T14:44:21.539Z,1.75
2019-05-23T14:49:27.303Z,3.22
2019-05-23T14:54:33.471Z,1.77
2019-05-23T14:59:36.410Z,2.35
2019-05-23T15:04:37.768Z,2.45
2019-05-23T15:09:38.862Z,2.95
2019-05-23T15:14:40.262Z,1.98
2019-05-23T15:19:45.119Z,3.05
2019-05-23T15:24:44.740Z,1.95
2019-05-23T15:29:46.026Z,1.75
2019-05-23T15:34:47.191Z,1.60
2019-05-23T15:39:48.409Z,2.60
2019-05-23T15:44:49.637Z,2.55
2019-05-23T15:49:52.766Z,2.27
2019-05-23T15:54:58.702Z,2.47
2019-05-23T16:00:07.489Z,1.75
2019-05-23T16:05:11.020Z,1.65
2019-05-23T16:10:13.127Z,3.30
2019-05-23T16:15:14.437Z,2.55
2019-05-23T16:20:16.125Z,2.65
2019-05-23T16:25:17.440Z,2.92
2019-05-23T16:30:18.889Z,3.67
2019-05-23T16:35:20.305Z,2.27
2019-05-23T16:40:21.539Z,3.22
2019-05-23T16:45:22.707Z,2.95
2019-05-23T16:50:24.001Z,1.85
2019-05-23T16:55:29.744Z,3.95
2019-05-23T17:00:49.856Z,2.45
2019-05-23T17:05:55.599Z,5.05
2019-05-23T17:10:58.732Z,6.25
2019-05-23T17:16:10.891Z,3.17
2019-05-23T17:21:22.932Z,2.62
2019-05-23T17:26:37.905Z,2.37
2019-05-23T17:31:40.943Z,3.87
2019-05-23T17:36:42.136Z,3.57
2019-05-23T17:41:43.292Z,3.73
2019-05-23T17:46:44.621Z,2.30
2019-05-23T17:51:45.861Z,2.53
2019-05-23T17:56:46.973Z,2.30
2019-05-23T18:01:49.070Z,1.90
2019-05-23T18:06:50.484Z,3.07
2019-05-23T18:11:55.380Z,3.33
2019-05-23T18:16:55.517Z,2.97
2019-05-23T18:21:57.060Z,3.70
2019-05-23T18:26:58.392Z,5.23
2019-05-23T18:31:59.770Z,4.43
2019-05-23T18:37:01.088Z,4.43
2019-05-23T18:42:03.214Z,3.60
2019-05-23T18:47:09.015Z,4.10
2019-05-23T18:52:10.930Z,4.50
2019-05-23T18:57:12.235Z,2.77
2019-05-23T19:02:14.196Z,5.03
2019-05-23T19:07:15.800Z,6.03
2019-05-23T19:12:17.014Z,4.03
2019-05-23T19:17:18.742Z,5.27
2019-05-23T19:22:20.765Z,3.33
2019-05-23T19:27:22.011Z,3.07
2019-05-23T19:32:23.192Z,5.53
2019-05-23T19:37:24.512Z,4.37
2019-05-23T19:42:25.679Z,2.67
2019-05-23T19:47:27.628Z,2.60
2019-05-23T19:52:28.748Z,3.30
2019-05-23T19:57:31.076Z,3.47
2019-05-23T20:02:49.824Z,4.80
2019-05-23T20:07:51.342Z,2.77
2019-05-23T20:12:52.572Z,3.00
2019-05-23T20:17:54.115Z,3.23
2019-05-23T20:22:55.360Z,3.67
2019-05-23T20:27:56.624Z,4.97
2019-05-23T20:32:57.931Z,3.50
2019-05-23T20:37:59.068Z,7.30
2019-05-23T20:43:02.542Z,3.20
2019-05-23T20:48:07.599Z,7.17
2019-05-23T20:53:08.769Z,7.77
2019-05-23T20:58:10.207Z,7.23
2019-05-23T21:03:11.695Z,4.27
2019-05-23T21:08:12.938Z,4.23
2019-05-23T21:13:14.680Z,5.00
2019-05-23T21:18:15.930Z,4.97
2019-05-23T21:23:17.144Z,5.27
2019-05-23T21:28:18.307Z,5.83
2019-05-23T21:33:19.439Z,8.03
2019-05-23T21:38:20.539Z,6.47
2019-05-23T21:43:22.036Z,5.13
2019-05-23T21:48:23.259Z,5.80
2019-05-23T21:53:24.459Z,5.47
2019-05-23T21:58:25.935Z,6.53
2019-05-23T22:03:28.477Z,7.77
2019-05-23T22:08:29.687Z,12.73
2019-05-23T22:13:31.204Z,7.33
2019-05-23T22:18:32.604Z,7.50
2019-05-23T22:23:34.684Z,6.73
2019-05-23T22:28:36.281Z,5.87
2019-05-23T22:33:39.448Z,5.93
2019-05-23T22:38:40.540Z,6.87
2019-05-23T22:43:41.736Z,5.23
2019-05-23T22:48:42.834Z,4.70
2019-05-23T22:53:43.924Z,4.23
2019-05-23T22:58:45.007Z,5.37
2019-05-23T23:03:46.296Z,4.73
2019-05-23T23:08:47.799Z,5.60
2019-05-23T23:13:48.900Z,5.53
2019-05-23T23:18:50.903Z,8.70
2019-05-23T23:23:51.999Z,4.00
2019-05-23T23:28:53.210Z,4.33
2019-05-23T23:33:54.320Z,4.17
2019-05-23T23:38:55.429Z,4.00
2019-05-23T23:43:59.647Z,4.40
2019-05-23T23:49:18.351Z,4.40
2019-05-23T23:54:37.990Z,3.93
2019-05-23T23:59:39.103Z,4.57
